sensor_id;sensor_type;location;lat;lon;timestamp;P1;durP1;ratioP1;P2;durP2;ratioP2
18503;SDS011;9381;54.244;10.074;2024-02-04T00:02:08;26.90;;;5.77;;
18503;SDS011;9381;54.244;10.074;2024-02-04T00:07:13;26.30;;;4.90;;
18503;SDS011;9381;54.244;10.074;2024-02-04T00:12:13;27.95;;;5.75;;
18503;SDS011;9381;54.244;10.074;2024-02-04T00:17:13;21.63;;;4.90;;
18503;SDS011;9381;54.244;10.074;2024-02-04T00:22:15;22.27;;;4.83;;
18503;SDS011;9381;54.244;10.074;2024-02-04T00:27:18;16.60;;;5.00;;
18503;SDS011;9381;54.244;10.074;2024-02-04T00:32:18;34.17;;;6.00;;
18503;SDS011;9381;54.244;10.074;2024-02-04T00:37:19;32.07;;;5.23;;
18503;SDS011;9381;54.244;10.074;2024-02-04T00:42:19;24.27;;;4.60;;
18503;SDS011;9381;54.244;10.074;2024-02-04T00:47:19;22.87;;;4.73;;
18503;SDS011;9381;54.244;10.074;2024-02-04T00:52:20;27.80;;;5.70;;
18503;SDS011;9381;54.244;10.074;2024-02-04T00:57:20;22.10;;;5.47;;
18503;SDS011;9381;54.244;10.074;2024-02-04T01:02:21;30.40;;;5.33;;
18503;SDS011;9381;54.244;10.074;2024-02-04T01:07:21;25.33;;;5.75;;
18503;SDS011;9381;54.244;10.074;2024-02-04T01:12:21;21.47;;;4.83;;
18503;SDS011;9381;54.244;10.074;2024-02-04T01:17:22;27.17;;;5.03;;
18503;SDS011;9381;54.244;10.074;2024-02-04T01:22:22;30.23;;;4.90;;
18503;SDS011;9381;54.244;10.074;2024-02-04T01:27:26;24.23;;;4.60;;
18503;SDS011;9381;54.244;10.074;2024-02-04T01:32:26;28.70;;;4.93;;
18503;SDS011;9381;54.244;10.074;2024-02-04T01:37:27;22.53;;;4.67;;
18503;SDS011;9381;54.244;10.074;2024-02-04T01:42:27;14.77;;;4.17;;
18503;SDS011;9381;54.244;10.074;2024-02-04T01:47:27;27.50;;;4.57;;
18503;SDS011;9381;54.244;10.074;2024-02-04T01:52:28;19.97;;;3.73;;
18503;SDS011;9381;54.244;10.074;2024-02-04T01:57:31;24.90;;;4.00;;
18503;SDS011;9381;54.244;10.074;2024-02-04T02:02:32;24.23;;;4.23;;
18503;SDS011;9381;54.244;10.074;2024-02-04T02:07:39;21.97;;;4.27;;
18503;SDS011;9381;54.244;10.074;2024-02-04T02:13:04;20.97;;;3.90;;
18503;SDS011;9381;54.244;10.074;2024-02-04T02:18:13;19.23;;;3.93;;
18503;SDS011;9381;54.244;10.074;2024-02-04T02:23:21;25.20;;;4.10;;
18503;SDS011;9381;54.244;10.074;2024-02-04T02:28:22;24.00;;;4.10;;
18503;SDS011;9381;54.244;10.074;2024-02-04T02:33:23;17.27;;;3.83;;
18503;SDS011;9381;54.244;10.074;2024-02-04T02:38:25;20.47;;;3.70;;
18503;SDS011;9381;54.244;10.074;2024-02-04T02:43:31;20.50;;;4.67;;
18503;SDS011;9381;54.244;10.074;2024-02-04T02:48:34;16.73;;;3.70;;
18503;SDS011;9381;54.244;10.074;2024-02-04T02:53:35;22.53;;;5.17;;
18503;SDS011;9381;54.244;10.074;2024-02-04T02:58:35;21.43;;;3.67;;
18503;SDS011;9381;54.244;10.074;2024-02-04T03:03:36;23.93;;;4.30;;
18503;SDS011;9381;54.244;10.074;2024-02-04T03:08:36;22.83;;;4.03;;
18503;SDS011;9381;54.244;10.074;2024-02-04T03:13:39;24.00;;;4.50;;
18503;SDS011;9381;54.244;10.074;2024-02-04T03:18:40;17.73;;;3.77;;
18503;SDS011;9381;54.244;10.074;2024-02-04T03:23:44;26.43;;;4.20;;
18503;SDS011;9381;54.244;10.074;2024-02-04T03:28:45;24.60;;;4.70;;
18503;SDS011;9381;54.244;10.074;2024-02-04T03:33:45;24.05;;;3.88;;
18503;SDS011;9381;54.244;10.074;2024-02-04T03:38:45;22.00;;;4.57;;
18503;SDS011;9381;54.244;10.074;2024-02-04T03:43:45;23.00;;;4.50;;
18503;SDS011;9381;54.244;10.074;2024-02-04T03:48:47;26.30;;;3.77;;
18503;SDS011;9381;54.244;10.074;2024-02-04T03:53:47;22.33;;;4.03;;
18503;SDS011;9381;54.244;10.074;2024-02-04T03:58:49;24.13;;;4.77;;
18503;SDS011;9381;54.244;10.074;2024-02-04T04:03:50;24.60;;;4.57;;
18503;SDS011;9381;54.244;10.074;2024-02-04T04:08:50;21.13;;;4.00;;
18503;SDS011;9381;54.244;10.074;2024-02-04T04:13:51;18.67;;;3.63;;
18503;SDS011;9381;54.244;10.074;2024-02-04T04:18:51;21.37;;;4.40;;
18503;SDS011;9381;54.244;10.074;2024-02-04T04:23:51;23.83;;;4.70;;
18503;SDS011;9381;54.244;10.074;2024-02-04T04:28:52;20.33;;;4.00;;
18503;SDS011;9381;54.244;10.074;2024-02-04T04:33:52;24.97;;;4.40;;
18503;SDS011;9381;54.244;10.074;2024-02-04T04:38:53;20.03;;;4.07;;
18503;SDS011;9381;54.244;10.074;2024-02-04T04:43:54;21.38;;;3.50;;
18503;SDS011;9381;54.244;10.074;2024-02-04T04:48:54;24.90;;;4.20;;
18503;SDS011;9381;54.244;10.074;2024-02-04T04:53:57;19.77;;;4.37;;
18503;SDS011;9381;54.244;10.074;2024-02-04T04:58:58;22.77;;;3.97;;
18503;SDS011;9381;54.244;10.074;2024-02-04T05:03:59;24.33;;;4.67;;
18503;SDS011;9381;54.244;10.074;2024-02-04T05:09:00;20.37;;;3.83;;
18503;SDS011;9381;54.244;10.074;2024-02-04T05:14:00;22.75;;;4.07;;
18503;SDS011;9381;54.244;10.074;2024-02-04T05:19:01;21.27;;;4.30;;
18503;SDS011;9381;54.244;10.074;2024-02-04T05:24:02;23.27;;;5.00;;
18503;SDS011;9381;54.244;10.074;2024-02-04T05:29:02;29.93;;;4.47;;
18503;SDS011;9381;54.244;10.074;2024-02-04T05:34:04;20.03;;;3.90;;
18503;SDS011;9381;54.244;10.074;2024-02-04T05:39:13;29.03;;;5.33;;
18503;SDS011;9381;54.244;10.074;2024-02-04T05:44:14;24.63;;;5.10;;
18503;SDS011;9381;54.244;10.074;2024-02-04T05:49:15;25.92;;;4.53;;
18503;SDS011;9381;54.244;10.074;2024-02-04T05:54:15;24.40;;;4.53;;
18503;SDS011;9381;54.244;10.074;2024-02-04T05:59:15;21.90;;;4.80;;
18503;SDS011;9381;54.244;10.074;2024-02-04T06:04:16;23.10;;;4.63;;
18503;SDS011;9381;54.244;10.074;2024-02-04T06:09:17;27.58;;;5.20;;
18503;SDS011;9381;54.244;10.074;2024-02-04T06:14:17;33.10;;;5.80;;
18503;SDS011;9381;54.244;10.074;2024-02-04T06:19:17;26.90;;;4.83;;
18503;SDS011;9381;54.244;10.074;2024-02-04T06:24:17;27.13;;;4.53;;
18503;SDS011;9381;54.244;10.074;2024-02-04T06:29:20;30.00;;;5.73;;
18503;SDS011;9381;54.244;10.074;2024-02-04T06:34:20;21.67;;;4.90;;
18503;SDS011;9381;54.244;10.074;2024-02-04T06:39:20;25.13;;;4.80;;
18503;SDS011;9381;54.244;10.074;2024-02-04T06:44:21;28.17;;;4.80;;
18503;SDS011;9381;54.244;10.074;2024-02-04T06:49:21;25.47;;;5.23;;
18503;SDS011;9381;54.244;10.074;2024-02-04T06:54:25;23.30;;;4.43;;
18503;SDS011;9381;54.244;10.074;2024-02-04T06:59:25;29.17;;;5.37;;
18503;SDS011;9381;54.244;10.074;2024-02-04T07:04:25;30.73;;;5.97;;
18503;SDS011;9381;54.244;10.074;2024-02-04T07:09:26;20.13;;;4.77;;
18503;SDS011;9381;54.244;10.074;2024-02-04T07:14:26;24.55;;;4.45;;
18503;SDS011;9381;54.244;10.074;2024-02-04T07:19:27;34.97;;;4.63;;
18503;SDS011;9381;54.244;10.074;2024-02-04T07:24:27;20.27;;;4.30;;
18503;SDS011;9381;54.244;10.074;2024-02-04T07:29:27;27.10;;;5.13;;
18503;SDS011;9381;54.244;10.074;2024-02-04T07:34:28;27.20;;;5.40;;
18503;SDS011;9381;54.244;10.074;2024-02-04T07:39:28;24.70;;;5.37;;
18503;SDS011;9381;54.244;10.074;2024-02-04T07:44:30;26.63;;;4.83;;
18503;SDS011;9381;54.244;10.074;2024-02-04T07:49:31;30.23;;;5.03;;
18503;SDS011;9381;54.244;10.074;2024-02-04T07:54:31;25.35;;;4.95;;
18503;SDS011;9381;54.244;10.074;2024-02-04T07:59:31;29.20;;;5.23;;
18503;SDS011;9381;54.244;10.074;2024-02-04T08:04:32;31.47;;;6.37;;
18503;SDS011;9381;54.244;10.074;2024-02-04T08:09:32;32.23;;;5.90;;
18503;SDS011;9381;54.244;10.074;2024-02-04T08:14:32;23.20;;;4.63;;
18503;SDS011;9381;54.244;10.074;2024-02-04T08:19:33;31.60;;;5.50;;
18503;SDS011;9381;54.244;10.074;2024-02-04T08:24:33;23.27;;;4.73;;
18503;SDS011;9381;54.244;10.074;2024-02-04T08:29:34;22.53;;;5.17;;
18503;SDS011;9381;54.244;10.074;2024-02-04T08:34:34;31.23;;;5.00;;
18503;SDS011;9381;54.244;10.074;2024-02-04T08:39:35;26.43;;;5.30;;
18503;SDS011;9381;54.244;10.074;2024-02-04T08:44:35;32.70;;;5.93;;
18503;SDS011;9381;54.244;10.074;2024-02-04T08:49:35;32.30;;;6.37;;
18503;SDS011;9381;54.244;10.074;2024-02-04T08:54:36;26.70;;;5.30;;
18503;SDS011;9381;54.244;10.074;2024-02-04T08:59:37;28.23;;;5.23;;
18503;SDS011;9381;54.244;10.074;2024-02-04T09:04:39;25.93;;;4.93;;
18503;SDS011;9381;54.244;10.074;2024-02-04T09:09:40;33.50;;;5.13;;
18503;SDS011;9381;54.244;10.074;2024-02-04T09:14:41;28.23;;;6.17;;
18503;SDS011;9381;54.244;10.074;2024-02-04T09:19:41;28.67;;;5.87;;
18503;SDS011;9381;54.244;10.074;2024-02-04T09:24:42;23.13;;;5.23;;
18503;SDS011;9381;54.244;10.074;2024-02-04T09:29:42;26.60;;;5.20;;
18503;SDS011;9381;54.244;10.074;2024-02-04T09:34:43;31.10;;;5.20;;
18503;SDS011;9381;54.244;10.074;2024-02-04T09:39:43;26.43;;;5.67;;
18503;SDS011;9381;54.244;10.074;2024-02-04T09:44:43;24.87;;;5.50;;
18503;SDS011;9381;54.244;10.074;2024-02-04T09:49:44;31.30;;;5.43;;
18503;SDS011;9381;54.244;10.074;2024-02-04T09:54:45;18.73;;;4.67;;
18503;SDS011;9381;54.244;10.074;2024-02-04T09:59:49;23.43;;;5.70;;
18503;SDS011;9381;54.244;10.074;2024-02-04T10:04:49;27.47;;;5.80;;
18503;SDS011;9381;54.244;10.074;2024-02-04T10:09:50;37.83;;;5.67;;
18503;SDS011;9381;54.244;10.074;2024-02-04T10:14:50;30.80;;;5.33;;
18503;SDS011;9381;54.244;10.074;2024-02-04T10:19:51;26.63;;;5.23;;
18503;SDS011;9381;54.244;10.074;2024-02-04T10:24:51;35.72;;;5.20;;
18503;SDS011;9381;54.244;10.074;2024-02-04T10:29:52;31.43;;;5.60;;
18503;SDS011;9381;54.244;10.074;2024-02-04T10:34:52;24.33;;;5.90;;
18503;SDS011;9381;54.244;10.074;2024-02-04T10:39:53;28.03;;;6.63;;
18503;SDS011;9381;54.244;10.074;2024-02-04T10:44:53;28.77;;;5.50;;
18503;SDS011;9381;54.244;10.074;2024-02-04T10:49:54;33.17;;;6.00;;
18503;SDS011;9381;54.244;10.074;2024-02-04T10:54:58;35.43;;;6.17;;
18503;SDS011;9381;54.244;10.074;2024-02-04T10:59:59;33.63;;;5.60;;
18503;SDS011;9381;54.244;10.074;2024-02-04T11:05:02;28.80;;;5.53;;
18503;SDS011;9381;54.244;10.074;2024-02-04T11:10:04;19.90;;;5.37;;
18503;SDS011;9381;54.244;10.074;2024-02-04T11:15:05;29.87;;;5.50;;
18503;SDS011;9381;54.244;10.074;2024-02-04T11:20:13;27.93;;;5.57;;
18503;SDS011;9381;54.244;10.074;2024-02-04T11:25:31;30.87;;;4.90;;
18503;SDS011;9381;54.244;10.074;2024-02-04T11:30:43;32.23;;;6.57;;
18503;SDS011;9381;54.244;10.074;2024-02-04T11:35:44;29.37;;;5.13;;
18503;SDS011;9381;54.244;10.074;2024-02-04T11:40:45;30.23;;;5.93;;
18503;SDS011;9381;54.244;10.074;2024-02-04T11:45:45;25.30;;;5.00;;
18503;SDS011;9381;54.244;10.074;2024-02-04T11:50:51;33.47;;;5.67;;
18503;SDS011;9381;54.244;10.074;2024-02-04T11:55:53;23.80;;;4.53;;
18503;SDS011;9381;54.244;10.074;2024-02-04T12:00:53;23.50;;;5.03;;
18503;SDS011;9381;54.244;10.074;2024-02-04T12:05:57;26.70;;;4.93;;
18503;SDS011;9381;54.244;10.074;2024-02-04T12:10:59;30.60;;;5.37;;
18503;SDS011;9381;54.244;10.074;2024-02-04T12:16:00;30.87;;;5.80;;
18503;SDS011;9381;54.244;10.074;2024-02-04T12:21:00;34.13;;;6.13;;
18503;SDS011;9381;54.244;10.074;2024-02-04T12:26:01;24.67;;;6.03;;
18503;SDS011;9381;54.244;10.074;2024-02-04T12:31:01;27.30;;;6.13;;
18503;SDS011;9381;54.244;10.074;2024-02-04T12:36:01;33.80;;;6.20;;
18503;SDS011;9381;54.244;10.074;2024-02-04T12:41:02;30.87;;;6.40;;
18503;SDS011;9381;54.244;10.074;2024-02-04T12:46:03;33.73;;;5.57;;
18503;SDS011;9381;54.244;10.074;2024-02-04T12:51:03;27.37;;;5.93;;
18503;SDS011;9381;54.244;10.074;2024-02-04T12:56:04;27.17;;;6.40;;
18503;SDS011;9381;54.244;10.074;2024-02-04T13:01:05;37.07;;;6.60;;
18503;SDS011;9381;54.244;10.074;2024-02-04T13:06:06;25.37;;;5.30;;
18503;SDS011;9381;54.244;10.074;2024-02-04T13:11:07;38.90;;;6.93;;
18503;SDS011;9381;54.244;10.074;2024-02-04T13:16:07;22.40;;;5.17;;
18503;SDS011;9381;54.244;10.074;2024-02-04T13:21:08;26.97;;;5.30;;
18503;SDS011;9381;54.244;10.074;2024-02-04T13:26:08;32.73;;;5.53;;
18503;SDS011;9381;54.244;10.074;2024-02-04T13:31:08;26.80;;;6.53;;
18503;SDS011;9381;54.244;10.074;2024-02-04T13:36:09;23.27;;;5.47;;
18503;SDS011;9381;54.244;10.074;2024-02-04T13:41:10;27.70;;;5.13;;
18503;SDS011;9381;54.244;10.074;2024-02-04T13:46:10;31.70;;;6.67;;
18503;SDS011;9381;54.244;10.074;2024-02-04T13:51:10;24.80;;;5.75;;
18503;SDS011;9381;54.244;10.074;2024-02-04T13:56:11;27.23;;;5.20;;
18503;SDS011;9381;54.244;10.074;2024-02-04T14:01:11;23.27;;;5.23;;
18503;SDS011;9381;54.244;10.074;2024-02-04T14:06:13;23.57;;;5.20;;
18503;SDS011;9381;54.244;10.074;2024-02-04T14:11:13;28.27;;;5.70;;
18503;SDS011;9381;54.244;10.074;2024-02-04T14:16:13;29.43;;;5.27;;
18503;SDS011;9381;54.244;10.074;2024-02-04T14:21:14;22.13;;;5.33;;
18503;SDS011;9381;54.244;10.074;2024-02-04T14:26:17;29.37;;;5.03;;
18503;SDS011;9381;54.244;10.074;2024-02-04T14:31:18;29.43;;;6.57;;
18503;SDS011;9381;54.244;10.074;2024-02-04T14:36:18;19.97;;;4.67;;
18503;SDS011;9381;54.244;10.074;2024-02-04T14:41:19;35.70;;;6.13;;
18503;SDS011;9381;54.244;10.074;2024-02-04T14:46:20;36.03;;;5.73;;
18503;SDS011;9381;54.244;10.074;2024-02-04T14:51:20;24.23;;;5.60;;
18503;SDS011;9381;54.244;10.074;2024-02-04T14:56:20;29.03;;;5.27;;
18503;SDS011;9381;54.244;10.074;2024-02-04T15:01:21;24.90;;;5.03;;
18503;SDS011;9381;54.244;10.074;2024-02-04T15:06:21;32.77;;;5.97;;
18503;SDS011;9381;54.244;10.074;2024-02-04T15:11:22;35.67;;;5.93;;
18503;SDS011;9381;54.244;10.074;2024-02-04T15:16:22;21.43;;;5.67;;
18503;SDS011;9381;54.244;10.074;2024-02-04T15:21:23;29.57;;;6.37;;
18503;SDS011;9381;54.244;10.074;2024-02-04T15:26:24;28.60;;;5.57;;
18503;SDS011;9381;54.244;10.074;2024-02-04T15:31:27;24.27;;;5.90;;
18503;SDS011;9381;54.244;10.074;2024-02-04T15:36:28;29.20;;;5.43;;
18503;SDS011;9381;54.244;10.074;2024-02-04T15:41:28;26.50;;;6.60;;
18503;SDS011;9381;54.244;10.074;2024-02-04T15:46:29;30.97;;;5.40;;
18503;SDS011;9381;54.244;10.074;2024-02-04T15:51:32;26.73;;;5.63;;
18503;SDS011;9381;54.244;10.074;2024-02-04T15:56:33;32.07;;;7.17;;
18503;SDS011;9381;54.244;10.074;2024-02-04T16:01:35;26.80;;;5.07;;
18503;SDS011;9381;54.244;10.074;2024-02-04T16:06:36;20.97;;;4.50;;
18503;SDS011;9381;54.244;10.074;2024-02-04T16:11:52;22.13;;;4.57;;
18503;SDS011;9381;54.244;10.074;2024-02-04T16:17:07;17.33;;;4.50;;
18503;SDS011;9381;54.244;10.074;2024-02-04T16:22:17;23.23;;;4.87;;
18503;SDS011;9381;54.244;10.074;2024-02-04T16:27:18;27.73;;;5.10;;
18503;SDS011;9381;54.244;10.074;2024-02-04T16:32:19;16.77;;;4.37;;
18503;SDS011;9381;54.244;10.074;2024-02-04T16:37:19;24.57;;;4.90;;
18503;SDS011;9381;54.244;10.074;2024-02-04T16:42:19;25.13;;;6.10;;
18503;SDS011;9381;54.244;10.074;2024-02-04T16:47:20;24.80;;;6.43;;
18503;SDS011;9381;54.244;10.074;2024-02-04T16:52:20;22.20;;;5.40;;
18503;SDS011;9381;54.244;10.074;2024-02-04T16:57:20;29.93;;;5.97;;
18503;SDS011;9381;54.244;10.074;2024-02-04T17:02:21;21.47;;;4.40;;
18503;SDS011;9381;54.244;10.074;2024-02-04T17:07:22;18.07;;;4.80;;
18503;SDS011;9381;54.244;10.074;2024-02-04T17:12:24;19.47;;;5.00;;
18503;SDS011;9381;54.244;10.074;2024-02-04T17:17:26;20.43;;;4.97;;
18503;SDS011;9381;54.244;10.074;2024-02-04T17:22:27;18.97;;;4.10;;
18503;SDS011;9381;54.244;10.074;2024-02-04T17:27:37;15.97;;;4.13;;
18503;SDS011;9381;54.244;10.074;2024-02-04T17:32:39;15.13;;;4.47;;
18503;SDS011;9381;54.244;10.074;2024-02-04T17:37:41;18.70;;;4.87;;
18503;SDS011;9381;54.244;10.074;2024-02-04T17:42:42;20.13;;;5.13;;
18503;SDS011;9381;54.244;10.074;2024-02-04T17:47:43;18.77;;;4.37;;
18503;SDS011;9381;54.244;10.074;2024-02-04T17:52:46;19.13;;;5.03;;
18503;SDS011;9381;54.244;10.074;2024-02-04T17:57:46;24.37;;;6.50;;
18503;SDS011;9381;54.244;10.074;2024-02-04T18:02:47;24.83;;;5.43;;
18503;SDS011;9381;54.244;10.074;2024-02-04T18:07:47;21.60;;;5.30;;
18503;SDS011;9381;54.244;10.074;2024-02-04T18:12:48;22.40;;;4.83;;
18503;SDS011;9381;54.244;10.074;2024-02-04T18:17:49;19.87;;;6.43;;
18503;SDS011;9381;54.244;10.074;2024-02-04T18:22:52;18.67;;;6.20;;
18503;SDS011;9381;54.244;10.074;2024-02-04T18:27:53;19.03;;;5.47;;
18503;SDS011;9381;54.244;10.074;2024-02-04T18:32:53;22.17;;;5.38;;
18503;SDS011;9381;54.244;10.074;2024-02-04T18:37:53;23.92;;;5.20;;
18503;SDS011;9381;54.244;10.074;2024-02-04T18:42:54;21.70;;;5.43;;
18503;SDS011;9381;54.244;10.074;2024-02-04T18:47:57;17.60;;;5.20;;
18503;SDS011;9381;54.244;10.074;2024-02-04T18:52:58;17.80;;;5.20;;
18503;SDS011;9381;54.244;10.074;2024-02-04T18:57:59;21.77;;;5.03;;
18503;SDS011;9381;54.244;10.074;2024-02-04T19:03:00;27.55;;;5.35;;
18503;SDS011;9381;54.244;10.074;2024-02-04T19:08:01;24.47;;;5.27;;
18503;SDS011;9381;54.244;10.074;2024-02-04T19:13:02;21.67;;;4.83;;
18503;SDS011;9381;54.244;10.074;2024-02-04T19:18:03;22.13;;;4.90;;
18503;SDS011;9381;54.244;10.074;2024-02-04T19:23:04;22.73;;;5.70;;
18503;SDS011;9381;54.244;10.074;2024-02-04T19:28:04;24.57;;;6.70;;
18503;SDS011;9381;54.244;10.074;2024-02-04T19:33:05;17.57;;;5.37;;
18503;SDS011;9381;54.244;10.074;2024-02-04T19:38:06;14.57;;;4.77;;
18503;SDS011;9381;54.244;10.074;2024-02-04T19:43:06;23.53;;;6.97;;
18503;SDS011;9381;54.244;10.074;2024-02-04T19:48:06;16.93;;;5.17;;
18503;SDS011;9381;54.244;10.074;2024-02-04T19:53:08;22.20;;;6.50;;
18503;SDS011;9381;54.244;10.074;2024-02-04T19:58:09;19.97;;;6.10;;
18503;SDS011;9381;54.244;10.074;2024-02-04T20:03:09;13.27;;;5.13;;
18503;SDS011;9381;54.244;10.074;2024-02-04T20:08:10;16.60;;;5.97;;
18503;SDS011;9381;54.244;10.074;2024-02-04T20:13:10;14.00;;;4.23;;
18503;SDS011;9381;54.244;10.074;2024-02-04T20:18:11;11.40;;;4.70;;
18503;SDS011;9381;54.244;10.074;2024-02-04T20:23:13;21.17;;;5.20;;
18503;SDS011;9381;54.244;10.074;2024-02-04T20:28:13;17.60;;;5.50;;
18503;SDS011;9381;54.244;10.074;2024-02-04T20:33:14;13.93;;;4.33;;
18503;SDS011;9381;54.244;10.074;2024-02-04T20:38:14;21.73;;;5.90;;
18503;SDS011;9381;54.244;10.074;2024-02-04T20:43:15;19.50;;;6.23;;
18503;SDS011;9381;54.244;10.074;2024-02-04T20:48:16;16.97;;;7.07;;
18503;SDS011;9381;54.244;10.074;2024-02-04T20:53:16;16.77;;;6.77;;
18503;SDS011;9381;54.244;10.074;2024-02-04T20:58:17;16.60;;;7.50;;
18503;SDS011;9381;54.244;10.074;2024-02-04T21:03:17;14.83;;;6.27;;
18503;SDS011;9381;54.244;10.074;2024-02-04T21:08:18;16.43;;;5.83;;
18503;SDS011;9381;54.244;10.074;2024-02-04T21:13:18;13.07;;;5.83;;
18503;SDS011;9381;54.244;10.074;2024-02-04T21:18:19;10.87;;;6.13;;
18503;SDS011;9381;54.244;10.074;2024-02-04T21:23:19;12.03;;;7.40;;
18503;SDS011;9381;54.244;10.074;2024-02-04T21:28:20;14.70;;;7.63;;
18503;SDS011;9381;54.244;10.074;2024-02-04T21:33:20;12.00;;;6.00;;
18503;SDS011;9381;54.244;10.074;2024-02-04T21:38:21;9.03;;;5.70;;
18503;SDS011;9381;54.244;10.074;2024-02-04T21:43:22;9.93;;;5.27;;
18503;SDS011;9381;54.244;10.074;2024-02-04T21:48:22;6.27;;;4.10;;
18503;SDS011;9381;54.244;10.074;2024-02-04T21:53:23;5.87;;;4.33;;
18503;SDS011;9381;54.244;10.074;2024-02-04T21:58:23;7.10;;;4.70;;
18503;SDS011;9381;54.244;10.074;2024-02-04T22:03:23;7.47;;;4.93;;
18503;SDS011;9381;54.244;10.074;2024-02-04T22:08:24;11.23;;;7.60;;
18503;SDS011;9381;54.244;10.074;2024-02-04T22:13:24;8.37;;;6.20;;
18503;SDS011;9381;54.244;10.074;2024-02-04T22:18:25;6.17;;;5.40;;
18503;SDS011;9381;54.244;10.074;2024-02-04T22:23:25;8.07;;;5.90;;
18503;SDS011;9381;54.244;10.074;2024-02-04T22:28:25;4.33;;;3.93;;
18503;SDS011;9381;54.244;10.074;2024-02-04T22:33:26;5.37;;;4.10;;
18503;SDS011;9381;54.244;10.074;2024-02-04T22:38:28;3.03;;;2.80;;
18503;SDS011;9381;54.244;10.074;2024-02-04T22:43:28;4.27;;;3.27;;
18503;SDS011;9381;54.244;10.074;2024-02-04T22:48:29;2.97;;;2.60;;
18503;SDS011;9381;54.244;10.074;2024-02-04T22:53:29;2.00;;;1.90;;
18503;SDS011;9381;54.244;10.074;2024-02-04T22:58:30;2.63;;;1.90;;
18503;SDS011;9381;54.244;10.074;2024-02-04T23:03:30;1.80;;;1.70;;
18503;SDS011;9381;54.244;10.074;2024-02-04T23:08:31;2.57;;;2.33;;
18503;SDS011;9381;54.244;10.074;2024-02-04T23:13:32;2.10;;;2.00;;
18503;SDS011;9381;54.244;10.074;2024-02-04T23:18:32;3.13;;;2.20;;
18503;SDS011;9381;54.244;10.074;2024-02-04T23:23:32;3.23;;;2.70;;
18503;SDS011;9381;54.244;10.074;2024-02-04T23:28:33;4.90;;;3.50;;
18503;SDS011;9381;54.244;10.074;2024-02-04T23:33:33;3.40;;;3.10;;
18503;SDS011;9381;54.244;10.074;2024-02-04T23:38:34;4.30;;;3.40;;
18503;SDS011;9381;54.244;10.074;2024-02-04T23:43:34;4.23;;;3.13;;
18503;SDS011;9381;54.244;10.074;2024-02-04T23:48:34;4.90;;;3.30;;
18503;SDS011;9381;54.244;10.074;2024-02-04T23:53:35;3.80;;;2.63;;
18503;SDS011;9381;54.244;10.074;2024-02-04T23:58:35;2.83;;;2.43;;
